createdAt,value
2018-04-12T00:00:28.499Z,13.83
2018-04-12T00:01:28.920Z,13.79
2018-04-12T00:02:29.359Z,13.71
2018-04-12T00:03:29.781Z,13.78
2018-04-12T00:04:30.213Z,13.72
2018-04-12T00:05:30.647Z,13.72
2018-04-12T00:06:31.089Z,13.78
2018-04-12T00:07:31.528Z,13.75
2018-04-12T00:08:31.947Z,13.70
2018-04-12T00:09:32.367Z,13.68
2018-04-12T00:10:32.797Z,13.65
2018-04-12T00:11:33.230Z,13.71
2018-04-12T00:12:33.659Z,13.70
2018-04-12T00:13:34.092Z,13.67
2018-04-12T00:14:34.519Z,13.72
2018-04-12T00:15:34.952Z,13.75
2018-04-12T00:16:35.383Z,13.63
2018-04-12T00:17:35.814Z,13.71
2018-04-12T00:18:36.239Z,13.71
2018-04-12T00:19:36.675Z,13.72
2018-04-12T00:20:37.157Z,13.62
2018-04-12T00:21:37.538Z,13.65
2018-04-12T00:22:37.995Z,13.59
2018-04-12T00:23:38.388Z,13.65
2018-04-12T00:24:38.828Z,13.65
2018-04-12T00:25:39.255Z,13.59
2018-04-12T00:26:39.686Z,13.56
2018-04-12T00:27:40.115Z,13.60
2018-04-12T00:28:40.571Z,13.54
2018-04-12T00:29:41.058Z,13.53
2018-04-12T00:30:41.403Z,13.53
2018-04-12T00:31:41.837Z,13.57
2018-04-12T00:32:42.271Z,13.52
2018-04-12T00:33:42.696Z,13.52
2018-04-12T00:34:43.130Z,13.54
2018-04-12T00:35:43.558Z,13.53
2018-04-12T00:36:43.990Z,13.47
2018-04-12T00:37:44.417Z,13.53
2018-04-12T00:38:44.848Z,13.56
2018-04-12T00:39:45.282Z,13.46
2018-04-12T00:40:45.708Z,13.50
2018-04-12T00:41:46.139Z,13.50
2018-04-12T00:42:46.567Z,13.54
2018-04-12T00:43:46.999Z,13.54
2018-04-12T00:44:47.431Z,13.56
2018-04-12T00:45:47.860Z,13.53
2018-04-12T00:46:48.292Z,13.57
2018-04-12T00:47:48.719Z,13.54
2018-04-12T00:48:49.153Z,13.46
2018-04-12T00:49:49.580Z,13.50
2018-04-12T00:50:50.012Z,13.49
2018-04-12T00:51:50.454Z,13.42
2018-04-12T00:52:50.904Z,13.49
2018-04-12T00:53:51.295Z,13.44
2018-04-12T00:54:51.740Z,13.42
2018-04-12T00:55:52.160Z,13.30
2018-04-12T00:56:52.654Z,13.31
2018-04-12T00:57:53.030Z,13.38
2018-04-12T00:58:53.453Z,13.37
2018-04-12T00:59:53.882Z,13.37
2018-04-12T01:00:54.311Z,13.39
2018-04-12T01:01:54.738Z,13.35
2018-04-12T01:02:55.182Z,13.33
2018-04-12T01:03:55.605Z,13.16
2018-04-12T01:04:56.035Z,13.28
2018-04-12T01:05:56.469Z,13.22
2018-04-12T01:06:56.900Z,13.31
2018-04-12T01:07:57.328Z,13.20
2018-04-12T01:08:57.752Z,13.31
2018-04-12T01:09:58.192Z,13.20
2018-04-12T01:10:58.629Z,13.35
2018-04-12T01:11:59.046Z,13.33
2018-04-12T01:12:59.476Z,13.33
2018-04-12T01:13:59.917Z,13.28
2018-04-12T01:15:00.332Z,13.30
2018-04-12T01:16:00.765Z,13.27
2018-04-12T01:17:01.209Z,13.31
2018-04-12T01:18:01.630Z,13.28
2018-04-12T01:19:02.058Z,13.33
2018-04-12T01:20:02.487Z,13.25
2018-04-12T01:21:02.916Z,13.20
2018-04-12T01:22:03.351Z,13.23
2018-04-12T01:23:03.781Z,13.27
2018-04-12T01:24:04.203Z,13.16
2018-04-12T01:25:04.640Z,13.28
2018-04-12T01:26:05.066Z,13.16
2018-04-12T01:27:05.492Z,13.19
2018-04-12T01:28:05.926Z,13.18
2018-04-12T01:29:06.358Z,13.16
2018-04-12T01:30:06.791Z,13.18
2018-04-12T01:31:07.214Z,13.16
2018-04-12T01:32:07.642Z,13.23
2018-04-12T01:33:08.094Z,13.15
2018-04-12T01:34:08.513Z,13.18
2018-04-12T01:35:08.933Z,13.15
2018-04-12T01:36:09.360Z,13.12
2018-04-12T01:37:09.802Z,13.11
2018-04-12T01:38:10.223Z,13.09
2018-04-12T01:39:10.658Z,13.11
2018-04-12T01:40:11.083Z,13.11
2018-04-12T01:41:11.517Z,13.04
2018-04-12T01:42:11.974Z,13.13
2018-04-12T01:43:12.373Z,13.11
2018-04-12T01:44:12.807Z,13.03
2018-04-12T01:45:13.236Z,13.08
2018-04-12T01:46:13.666Z,13.04
2018-04-12T01:47:14.093Z,12.94
2018-04-12T01:48:14.530Z,12.98
2018-04-12T01:49:14.952Z,13.04
2018-04-12T01:50:15.380Z,12.97
2018-04-12T01:51:15.809Z,12.94
2018-04-12T01:52:16.240Z,12.98
2018-04-12T01:53:16.739Z,12.91
2018-04-12T01:54:17.150Z,12.91
2018-04-12T01:55:17.538Z,12.87
2018-04-12T01:56:17.964Z,12.93
2018-04-12T01:57:18.389Z,12.95
2018-04-12T01:58:18.813Z,12.91
2018-04-12T01:59:19.254Z,12.91
2018-04-12T02:00:19.677Z,12.73
2018-04-12T02:01:20.114Z,12.85
2018-04-12T02:02:20.544Z,12.86
2018-04-12T02:03:20.973Z,12.79
2018-04-12T02:04:21.397Z,12.76
2018-04-12T02:05:21.828Z,12.86
2018-04-12T02:06:22.257Z,12.76
2018-04-12T02:07:22.696Z,12.83
2018-04-12T02:08:23.131Z,12.78
2018-04-12T02:09:23.545Z,12.76
2018-04-12T02:10:23.995Z,12.73
2018-04-12T02:11:24.416Z,12.67
2018-04-12T02:12:24.837Z,12.73
2018-04-12T02:13:25.266Z,12.65
2018-04-12T02:14:25.695Z,12.68
2018-04-12T02:15:26.128Z,12.68
2018-04-12T02:16:26.561Z,12.70
2018-04-12T02:17:26.981Z,12.68
2018-04-12T02:18:27.413Z,12.73
2018-04-12T02:19:27.849Z,12.68
2018-04-12T02:20:28.277Z,12.68
2018-04-12T02:21:28.701Z,12.70
2018-04-12T02:22:29.134Z,12.67
2018-04-12T02:23:29.559Z,12.60
2018-04-12T02:24:30.006Z,12.64
2018-04-12T02:25:30.430Z,12.68
2018-04-12T02:26:30.848Z,12.58
2018-04-12T02:27:31.283Z,12.62
2018-04-12T02:28:31.706Z,12.72
2018-04-12T02:29:32.136Z,12.72
2018-04-12T02:30:32.573Z,12.60
2018-04-12T02:31:32.994Z,12.61
2018-04-12T02:32:33.432Z,12.58
2018-04-12T02:33:33.860Z,12.58
2018-04-12T02:34:34.281Z,12.58
2018-04-12T02:35:34.720Z,12.58
2018-04-12T02:36:35.146Z,12.60
2018-04-12T02:37:35.589Z,12.58
2018-04-12T02:38:36.031Z,12.61
2018-04-12T02:39:36.435Z,12.61
2018-04-12T02:40:36.865Z,12.49
2018-04-12T02:41:37.294Z,12.62
2018-04-12T02:42:37.729Z,12.45
2018-04-12T02:43:38.152Z,12.49
2018-04-12T02:44:38.581Z,12.54
2018-04-12T02:45:39.024Z,12.53
2018-04-12T02:46:39.439Z,12.60
2018-04-12T02:47:39.880Z,12.57
2018-04-12T02:48:40.306Z,12.64
2018-04-12T02:49:40.727Z,12.60
2018-04-12T02:50:41.193Z,12.57
2018-04-12T02:51:41.591Z,12.58
2018-04-12T02:52:42.023Z,12.60
2018-04-12T02:53:42.469Z,12.58
2018-04-12T02:54:42.880Z,12.53
2018-04-12T02:55:43.302Z,12.49
2018-04-12T02:56:43.739Z,12.49
2018-04-12T02:57:44.165Z,12.53
2018-04-12T02:58:44.597Z,12.53
2018-04-12T02:59:45.024Z,12.54
2018-04-12T03:00:45.466Z,12.50
2018-04-12T03:01:45.901Z,12.58
2018-04-12T03:02:46.316Z,12.49
2018-04-12T03:03:46.736Z,12.47
2018-04-12T03:04:47.174Z,12.47
2018-04-12T03:05:47.606Z,12.53
2018-04-12T03:06:48.034Z,12.43
2018-04-12T03:07:48.457Z,12.54
2018-04-12T03:08:48.904Z,12.55
2018-04-12T03:09:49.320Z,12.43
2018-04-12T03:10:49.748Z,12.49
2018-04-12T03:11:50.188Z,12.43
2018-04-12T03:12:50.614Z,12.46
2018-04-12T03:13:51.045Z,12.43
2018-04-12T03:14:51.489Z,12.50
2018-04-12T03:15:51.897Z,12.49
2018-04-12T03:16:52.328Z,12.47
2018-04-12T03:17:52.755Z,12.42
2018-04-12T03:18:53.177Z,12.50
2018-04-12T03:19:53.617Z,12.49
2018-04-12T03:20:54.042Z,12.47
2018-04-12T03:21:54.470Z,12.45
2018-04-12T03:22:54.903Z,12.45
2018-04-12T03:23:55.400Z,12.42
2018-04-12T03:24:55.774Z,12.39
2018-04-12T03:25:56.187Z,12.37
2018-04-12T03:26:56.622Z,12.37
2018-04-12T03:27:57.045Z,12.39
2018-04-12T03:28:57.473Z,12.35
2018-04-12T03:29:57.910Z,12.31
2018-04-12T03:30:58.333Z,12.31
2018-04-12T03:31:58.762Z,12.36
2018-04-12T03:32:59.199Z,12.37
2018-04-12T03:33:59.627Z,12.31
2018-04-12T03:35:00.053Z,12.31
2018-04-12T03:36:00.488Z,12.32
2018-04-12T03:37:00.903Z,12.31
2018-04-12T03:38:01.337Z,12.25
2018-04-12T03:39:01.767Z,12.35
2018-04-12T03:40:02.194Z,12.27
2018-04-12T03:41:02.627Z,12.31
2018-04-12T03:42:03.052Z,12.29
2018-04-12T03:43:03.513Z,12.36
2018-04-12T03:44:03.912Z,12.31
2018-04-12T03:45:04.337Z,12.24
2018-04-12T03:46:04.780Z,12.31
2018-04-12T03:47:05.203Z,12.27
2018-04-12T03:48:05.626Z,12.24
2018-04-12T03:49:06.066Z,12.25
2018-04-12T03:50:06.494Z,12.28
2018-04-12T03:51:06.909Z,12.22
2018-04-12T03:52:07.343Z,12.22
2018-04-12T03:53:07.771Z,12.18
2018-04-12T03:54:08.201Z,12.21
2018-04-12T03:55:08.633Z,12.15
2018-04-12T03:56:09.069Z,12.17
2018-04-12T03:57:09.489Z,12.18
2018-04-12T03:58:09.917Z,12.18
2018-04-12T03:59:10.356Z,12.21
2018-04-12T04:00:10.781Z,12.21
2018-04-12T04:01:11.207Z,12.25
2018-04-12T04:02:11.637Z,12.09
2018-04-12T04:03:12.062Z,12.17
2018-04-12T04:04:12.497Z,12.15
2018-04-12T04:05:12.920Z,12.10
2018-04-12T04:06:13.347Z,12.17
2018-04-12T04:07:13.779Z,12.06
2018-04-12T04:08:14.206Z,12.06
2018-04-12T04:09:14.635Z,12.13
2018-04-12T04:10:15.062Z,12.07
2018-04-12T04:11:15.494Z,12.06
2018-04-12T04:12:15.920Z,12.10
2018-04-12T04:13:16.349Z,12.07
2018-04-12T04:14:16.786Z,12.12
2018-04-12T04:15:17.215Z,12.02
2018-04-12T04:16:17.637Z,12.04
2018-04-12T04:17:18.061Z,12.06
2018-04-12T04:18:18.494Z,12.03
2018-04-12T04:19:18.924Z,12.04
2018-04-12T04:20:19.357Z,11.97
2018-04-12T04:21:19.787Z,12.02
2018-04-12T04:22:20.208Z,12.04
2018-04-12T04:23:20.641Z,12.07
2018-04-12T04:24:21.066Z,11.97
2018-04-12T04:25:21.495Z,12.09
2018-04-12T04:26:21.932Z,12.02
2018-04-12T04:27:22.351Z,11.91
2018-04-12T04:28:22.807Z,11.99
2018-04-12T04:29:23.220Z,11.88
2018-04-12T04:30:23.689Z,11.86
2018-04-12T04:31:24.071Z,11.81
2018-04-12T04:32:24.496Z,11.90
2018-04-12T04:33:24.929Z,11.90
2018-04-12T04:34:25.360Z,11.94
2018-04-12T04:35:25.785Z,11.91
2018-04-12T04:36:26.210Z,11.99
2018-04-12T04:37:26.637Z,11.87
2018-04-12T04:38:27.071Z,11.86
2018-04-12T04:39:27.496Z,11.95
2018-04-12T04:40:27.924Z,11.84
2018-04-12T04:41:28.356Z,11.94
2018-04-12T04:42:28.845Z,11.84
2018-04-12T04:43:29.216Z,12.00
2018-04-12T04:44:29.636Z,11.88
2018-04-12T04:45:30.071Z,11.83
2018-04-12T04:46:30.588Z,11.91
2018-04-12T04:47:30.994Z,11.99
2018-04-12T04:48:31.354Z,11.94
2018-04-12T04:49:31.819Z,11.91
2018-04-12T04:50:32.219Z,11.99
2018-04-12T04:51:32.644Z,11.95
2018-04-12T04:52:33.067Z,11.99
2018-04-12T04:53:33.510Z,12.02
2018-04-12T04:54:33.971Z,11.88
2018-04-12T04:55:34.364Z,12.00
2018-04-12T04:56:34.787Z,12.02
2018-04-12T04:57:35.234Z,11.99
2018-04-12T04:58:35.641Z,12.00
2018-04-12T04:59:36.135Z,12.00
2018-04-12T05:00:36.528Z,11.88
2018-04-12T05:01:36.929Z,11.91
2018-04-12T05:02:37.355Z,11.91
2018-04-12T05:03:37.789Z,12.03
2018-04-12T05:04:38.214Z,12.02
2018-04-12T05:05:38.638Z,12.00
2018-04-12T05:06:39.075Z,11.95
2018-04-12T05:07:39.500Z,12.00
2018-04-12T05:08:39.924Z,12.00
2018-04-12T05:09:40.356Z,12.00
2018-04-12T05:10:40.799Z,12.03
2018-04-12T05:11:41.225Z,12.07
2018-04-12T05:12:41.642Z,12.04
2018-04-12T05:13:42.072Z,12.07
2018-04-12T05:14:42.503Z,12.09
2018-04-12T05:15:42.987Z,12.07
2018-04-12T05:16:43.373Z,12.21
2018-04-12T05:17:43.793Z,12.20
2018-04-12T05:18:44.223Z,12.20
2018-04-12T05:19:44.645Z,12.20
2018-04-12T05:20:45.077Z,12.32
2018-04-12T05:21:45.505Z,12.20
2018-04-12T05:22:45.977Z,12.21
2018-04-12T05:23:46.370Z,12.12
2018-04-12T05:24:46.789Z,12.22
2018-04-12T05:25:47.220Z,12.24
2018-04-12T05:26:47.700Z,12.22
2018-04-12T05:27:48.095Z,12.29
2018-04-12T05:28:48.510Z,12.35
2018-04-12T05:29:48.970Z,12.27
2018-04-12T05:30:49.364Z,12.35
2018-04-12T05:31:49.794Z,12.39
2018-04-12T05:32:50.220Z,12.37
2018-04-12T05:33:50.654Z,12.37
2018-04-12T05:34:51.118Z,12.37
2018-04-12T05:35:51.520Z,12.36
2018-04-12T05:36:51.943Z,12.45
2018-04-12T05:37:52.366Z,12.45
2018-04-12T05:38:52.813Z,12.45
2018-04-12T05:39:53.233Z,12.57
2018-04-12T05:40:53.697Z,12.61
2018-04-12T05:41:54.141Z,12.57
2018-04-12T05:42:54.530Z,12.62
2018-04-12T05:43:54.942Z,12.46
2018-04-12T05:44:55.378Z,12.43
2018-04-12T05:45:55.816Z,12.42
2018-04-12T05:46:56.240Z,12.45
2018-04-12T05:47:56.678Z,12.49
2018-04-12T05:48:57.094Z,12.47
2018-04-12T05:49:57.519Z,12.49
2018-04-12T05:50:57.957Z,12.53
2018-04-12T05:51:58.388Z,12.61
2018-04-12T05:52:58.814Z,12.62
2018-04-12T05:53:59.238Z,12.57
2018-04-12T05:54:59.670Z,12.62
2018-04-12T05:56:00.104Z,12.80
2018-04-12T05:57:00.536Z,12.82
2018-04-12T05:58:00.959Z,12.80
2018-04-12T05:59:01.481Z,12.68
2018-04-12T06:00:01.838Z,12.73
2018-04-12T06:01:02.246Z,12.79
2018-04-12T06:02:02.680Z,12.90
2018-04-12T06:03:03.106Z,12.98
2018-04-12T06:04:03.544Z,12.90
2018-04-12T06:05:03.970Z,12.85
2018-04-12T06:06:04.394Z,12.97
2018-04-12T06:07:04.827Z,13.11
2018-04-12T06:08:05.270Z,13.18
2018-04-12T06:09:05.687Z,13.15
2018-04-12T06:10:06.121Z,13.16
2018-04-12T06:11:06.567Z,13.20
2018-04-12T06:12:06.978Z,13.15
2018-04-12T06:13:07.567Z,13.16
2018-04-12T06:14:07.849Z,13.18
2018-04-12T06:15:08.275Z,13.33
2018-04-12T06:16:08.698Z,13.33
2018-04-12T06:17:09.130Z,13.38
2018-04-12T06:18:09.567Z,13.49
2018-04-12T06:19:09.988Z,13.42
2018-04-12T06:20:10.445Z,13.38
2018-04-12T06:21:10.854Z,13.42
2018-04-12T06:22:11.282Z,13.35
2018-04-12T06:23:11.719Z,13.44
2018-04-12T06:24:12.147Z,13.53
2018-04-12T06:25:12.592Z,13.46
2018-04-12T06:26:13.002Z,13.47
2018-04-12T06:27:13.446Z,13.67
2018-04-12T06:28:13.865Z,13.57
2018-04-12T06:29:14.297Z,13.57
2018-04-12T06:30:14.730Z,13.57
2018-04-12T06:31:15.164Z,13.56
2018-04-12T06:32:15.590Z,13.72
2018-04-12T06:33:16.013Z,13.79
2018-04-12T06:34:16.452Z,13.78
2018-04-12T06:35:16.884Z,13.83
2018-04-12T06:36:17.314Z,13.89
2018-04-12T06:37:17.741Z,13.99
2018-04-12T06:38:18.180Z,14.05
2018-04-12T06:39:18.617Z,13.96
2018-04-12T06:40:19.038Z,14.05
2018-04-12T06:41:19.468Z,14.18
2018-04-12T06:42:19.900Z,14.23
2018-04-12T06:43:44.224Z,14.33
2018-04-12T06:44:20.770Z,14.33
2018-04-12T06:45:21.197Z,14.26
2018-04-12T06:46:21.633Z,14.47
2018-04-12T06:47:22.057Z,14.60
2018-04-12T06:48:22.490Z,14.63
2018-04-12T06:49:22.920Z,14.68
2018-04-12T06:50:23.360Z,14.65
2018-04-12T06:51:23.790Z,14.66
2018-04-12T06:52:24.222Z,14.65
2018-04-12T06:53:24.668Z,14.68
2018-04-12T06:54:25.082Z,14.84
2018-04-12T06:55:25.521Z,14.97
2018-04-12T06:56:25.949Z,14.94
2018-04-12T06:57:26.383Z,15.10
2018-04-12T06:58:26.809Z,15.22
2018-04-12T06:59:27.247Z,15.07
2018-04-12T07:00:27.673Z,14.94
2018-04-12T07:01:28.107Z,15.09
2018-04-12T07:02:28.538Z,15.04
2018-04-12T07:03:28.976Z,15.17
2018-04-12T07:04:29.413Z,15.24
2018-04-12T07:05:29.848Z,15.37
2018-04-12T07:06:30.271Z,15.39
2018-04-12T07:07:30.708Z,15.35
2018-04-12T07:08:31.143Z,15.40
2018-04-12T07:09:31.571Z,15.27
2018-04-12T07:10:32.012Z,15.31
2018-04-12T07:11:32.452Z,15.28
2018-04-12T07:12:32.871Z,14.99
2018-04-12T07:13:33.307Z,15.25
2018-04-12T07:14:34.742Z,15.36
2018-04-12T07:15:34.188Z,15.51
2018-04-12T07:16:34.614Z,15.62
2018-04-12T07:17:35.041Z,15.44
2018-04-12T07:18:35.483Z,15.44
2018-04-12T07:19:50.733Z,15.55
2018-04-12T07:21:12.250Z,15.36
2018-04-12T07:21:39.736Z,15.61
2018-04-12T07:22:37.217Z,15.70
2018-04-12T07:23:37.649Z,15.70
2018-04-12T07:24:38.076Z,15.67
2018-04-12T07:25:38.535Z,15.83
2018-04-12T07:26:38.944Z,15.67
2018-04-12T07:27:39.421Z,15.51
2018-04-12T07:28:39.820Z,15.44
2018-04-12T07:29:40.251Z,15.59
2018-04-12T07:30:40.690Z,15.64
2018-04-12T07:31:41.125Z,15.68
2018-04-12T07:32:41.558Z,15.67
2018-04-12T07:33:41.997Z,15.80
2018-04-12T07:34:45.253Z,15.84
2018-04-12T07:35:42.860Z,15.64
2018-04-12T07:36:43.292Z,15.67
2018-04-12T07:37:43.735Z,15.59
2018-04-12T07:38:44.195Z,15.70
2018-04-12T07:39:44.607Z,15.55
2018-04-12T07:40:47.745Z,15.59
2018-04-12T07:41:45.465Z,15.57
2018-04-12T07:42:45.911Z,15.62
2018-04-12T07:43:46.340Z,15.75
2018-04-12T07:44:49.742Z,15.58
2018-04-12T07:45:47.213Z,15.59
2018-04-12T07:46:47.651Z,15.62
2018-04-12T07:47:50.744Z,15.76
2018-04-12T07:49:03.249Z,15.80
2018-04-12T07:50:49.367Z,15.79
2018-04-12T07:51:49.816Z,15.84
2018-04-12T07:52:53.253Z,15.94
2018-04-12T07:53:50.681Z,15.98
2018-04-12T07:54:51.132Z,15.97
2018-04-12T07:55:51.554Z,15.94
2018-04-12T07:56:51.992Z,15.91
2018-04-12T07:57:52.418Z,16.00
2018-04-12T07:58:52.854Z,16.16
2018-04-12T08:01:47.561Z,16.60
2018-04-12T08:03:59.968Z,16.90
2018-04-12T08:06:14.712Z,17.04
2018-04-12T08:07:15.146Z,17.26
2018-04-12T08:09:41.479Z,17.39
2018-04-12T08:12:57.577Z,18.26
2018-04-12T08:13:57.994Z,18.50
2018-04-12T08:15:52.578Z,19.29
2018-04-12T08:16:53.007Z,19.31
2018-04-12T08:18:47.595Z,19.26
2018-04-12T08:19:48.037Z,19.31
2018-04-12T08:21:42.623Z,19.49
2018-04-12T08:22:43.081Z,19.04
2018-04-12T08:24:37.673Z,18.78
2018-04-12T08:25:38.101Z,18.88
2018-04-12T08:27:32.683Z,18.74
2018-04-12T08:28:33.111Z,18.31
2018-04-12T08:35:09.051Z,17.39
2018-04-12T08:37:42.584Z,17.57
2018-04-12T08:38:43.019Z,17.64
2018-04-12T08:40:38.619Z,17.87
2018-04-12T08:42:54.278Z,18.62
2018-04-12T08:43:54.710Z,19.15
2018-04-12T08:45:49.307Z,19.33
2018-04-12T08:46:49.722Z,19.51
2018-04-12T08:48:44.309Z,19.86
2018-04-12T08:49:44.747Z,20.25
2018-04-12T08:51:39.332Z,20.44
2018-04-12T08:52:39.787Z,20.16
2018-04-12T08:54:35.355Z,20.65
2018-04-12T08:55:35.801Z,20.51
2018-04-12T08:57:30.388Z,20.11
2018-04-12T08:58:30.845Z,20.39
2018-04-12T09:00:25.434Z,20.62
2018-04-12T09:01:25.862Z,20.81
2018-04-12T09:03:20.549Z,20.81
2018-04-12T09:04:20.979Z,20.56
2018-04-12T09:06:15.579Z,19.94
2018-04-12T09:07:16.015Z,19.54
2018-04-12T09:09:10.626Z,19.11
2018-04-12T09:10:11.057Z,19.11
2018-04-12T09:14:12.353Z,19.07
2018-04-12T09:14:41.023Z,19.11
2018-04-12T09:16:49.862Z,19.02
2018-04-12T09:17:36.055Z,18.96
2018-04-12T09:19:30.659Z,19.07
2018-04-12T09:20:31.091Z,19.08
2018-04-12T09:22:25.675Z,19.26
2018-04-12T09:23:26.105Z,19.19
2018-04-12T09:25:20.781Z,19.55
2018-04-12T09:26:21.144Z,19.56
2018-04-12T09:28:16.696Z,19.88
2018-04-12T09:29:17.146Z,20.25
2018-04-12T09:31:11.736Z,20.72
2018-04-12T09:32:12.180Z,20.84
2018-04-12T09:34:06.783Z,20.80
2018-04-12T09:35:07.207Z,21.22
2018-04-12T09:36:07.645Z,21.33
2018-04-12T09:37:08.128Z,21.39
2018-04-12T09:38:08.538Z,21.29
2018-04-12T09:39:08.983Z,21.69
2018-04-12T09:40:09.428Z,21.76
2018-04-12T09:41:09.874Z,21.67
2018-04-12T09:42:10.319Z,21.85
2018-04-12T09:43:10.763Z,22.22
2018-04-12T09:44:11.208Z,22.26
2018-04-12T09:48:17.896Z,21.99
2018-04-12T09:49:18.403Z,21.62
2018-04-12T09:51:24.191Z,21.91
2018-04-12T09:56:33.910Z,21.95
2018-04-12T09:57:34.361Z,22.10
2018-04-12T09:59:54.977Z,22.38
2018-04-12T10:00:29.396Z,22.47
2018-04-12T10:01:29.847Z,22.29
2018-04-12T10:02:30.301Z,22.96
2018-04-12T10:03:30.761Z,23.02
2018-04-12T10:04:31.203Z,23.02
2018-04-12T10:05:31.645Z,22.72
2018-04-12T10:06:32.087Z,23.18
2018-04-12T10:07:32.538Z,23.91
2018-04-12T10:08:32.993Z,24.17
2018-04-12T10:09:33.448Z,24.23
2018-04-12T10:10:33.899Z,24.17
2018-04-12T10:11:34.345Z,24.47
2018-04-12T10:12:34.790Z,24.36
2018-04-12T10:13:35.248Z,24.55
2018-04-12T10:14:35.697Z,24.16
2018-04-12T10:15:36.150Z,23.88
2018-04-12T10:16:36.620Z,24.14
2018-04-12T10:17:37.055Z,24.43
2018-04-12T10:18:37.500Z,24.48
2018-04-12T10:19:38.040Z,24.38
2018-04-12T10:20:38.412Z,24.58
2018-04-12T10:21:38.926Z,23.99
2018-04-12T10:22:39.307Z,23.88
2018-04-12T10:23:39.769Z,23.98
2018-04-12T10:24:40.220Z,23.86
2018-04-12T10:25:40.676Z,23.92
2018-04-12T10:26:41.128Z,23.81
2018-04-12T10:27:41.584Z,24.01
2018-04-12T10:28:42.037Z,23.92
2018-04-12T10:29:42.482Z,24.29
2018-04-12T10:30:42.937Z,24.30
2018-04-12T10:31:43.383Z,23.73
2018-04-12T10:32:43.840Z,23.34
2018-04-12T10:33:44.291Z,22.98
2018-04-12T10:34:44.762Z,22.54
2018-04-12T10:35:45.189Z,22.43
2018-04-12T10:36:45.644Z,22.10
2018-04-12T10:37:46.099Z,22.14
2018-04-12T10:38:46.540Z,22.60
2018-04-12T10:39:46.996Z,22.53
2018-04-12T10:40:47.440Z,22.36
2018-04-12T10:41:47.948Z,22.39
2018-04-12T10:42:48.348Z,22.23
2018-04-12T10:43:48.786Z,21.99
2018-04-12T10:44:49.234Z,21.69
2018-04-12T10:45:49.683Z,21.58
2018-04-12T10:46:50.148Z,21.58
2018-04-12T10:47:50.576Z,21.61
2018-04-12T10:48:51.029Z,21.51
2018-04-12T10:49:51.466Z,21.62
2018-04-12T10:50:51.923Z,21.72
2018-04-12T10:51:52.363Z,21.67
2018-04-12T10:52:52.815Z,21.46
2018-04-12T10:53:53.256Z,21.40
2018-04-12T10:54:53.696Z,21.18
2018-04-12T10:55:54.148Z,21.20
2018-04-12T10:56:54.584Z,21.18
2018-04-12T10:57:55.027Z,21.02
2018-04-12T10:58:55.474Z,21.20
2018-04-12T10:59:55.919Z,21.36
2018-04-12T11:00:56.360Z,21.62
2018-04-12T11:01:56.811Z,21.77
2018-04-12T11:02:57.245Z,22.13
2018-04-12T11:03:57.689Z,22.29
2018-04-12T11:04:58.146Z,22.41
2018-04-12T11:05:58.582Z,22.75
2018-04-12T11:06:59.022Z,22.80
2018-04-12T11:07:59.475Z,22.75
2018-04-12T11:08:59.929Z,23.05
2018-04-12T11:10:00.366Z,23.59
2018-04-12T11:11:00.812Z,24.17
2018-04-12T11:12:01.257Z,24.39
2018-04-12T11:13:01.703Z,25.07
2018-04-12T11:14:02.155Z,25.47
2018-04-12T11:15:02.597Z,25.66
2018-04-12T11:16:03.051Z,25.28
2018-04-12T11:17:03.507Z,25.53
2018-04-12T11:18:03.946Z,25.90
2018-04-12T11:19:04.409Z,25.96
2018-04-12T11:20:04.864Z,25.46
2018-04-12T11:21:05.335Z,26.19
2018-04-12T11:22:05.762Z,26.22
2018-04-12T11:23:06.211Z,26.33
2018-04-12T11:24:06.671Z,26.55
2018-04-12T11:25:07.121Z,26.70
2018-04-12T11:26:07.583Z,26.77
2018-04-12T11:27:08.104Z,27.15
2018-04-12T11:28:08.494Z,26.99
2018-04-12T11:29:08.951Z,26.63
2018-04-12T11:30:09.410Z,26.36
2018-04-12T11:31:09.866Z,26.52
2018-04-12T11:32:10.319Z,26.13
2018-04-12T11:33:10.806Z,25.66
2018-04-12T11:34:11.275Z,25.41
2018-04-12T11:35:11.699Z,25.36
2018-04-12T11:36:12.150Z,25.47
2018-04-12T11:37:12.623Z,26.22
2018-04-12T11:38:13.061Z,26.68
2018-04-12T11:39:13.527Z,26.70
2018-04-12T11:40:13.977Z,26.28
2018-04-12T11:41:14.449Z,25.87
2018-04-12T11:42:14.917Z,25.51
2018-04-12T11:43:15.357Z,25.26
2018-04-12T11:44:15.816Z,24.85
2018-04-12T11:45:16.258Z,24.20
2018-04-12T11:46:16.754Z,23.92
2018-04-12T11:47:17.171Z,23.55
2018-04-12T11:48:17.618Z,23.40
2018-04-12T11:49:18.070Z,23.46
2018-04-12T11:50:18.524Z,23.43
2018-04-12T11:51:18.979Z,23.56
2018-04-12T11:52:19.422Z,23.50
2018-04-12T11:53:19.921Z,23.58
2018-04-12T11:54:20.312Z,23.44
2018-04-12T11:55:20.770Z,23.31
2018-04-12T11:56:21.211Z,23.41
2018-04-12T11:57:21.666Z,23.59
2018-04-12T11:58:22.105Z,23.66
2018-04-12T11:59:22.559Z,23.69
2018-04-12T12:00:23.007Z,23.46
2018-04-12T12:01:23.453Z,23.59
2018-04-12T12:02:23.949Z,23.62
2018-04-12T12:03:24.342Z,23.55
2018-04-12T12:04:24.784Z,23.62
2018-04-12T12:05:25.224Z,23.56
2018-04-12T12:06:25.677Z,23.81
2018-04-12T12:07:26.116Z,23.91
2018-04-12T12:08:26.560Z,23.91
2018-04-12T12:09:27.000Z,23.92
2018-04-12T12:10:27.452Z,23.91
2018-04-12T12:11:27.893Z,23.88
2018-04-12T12:12:28.383Z,23.84
2018-04-12T12:13:28.780Z,23.86
2018-04-12T12:14:29.229Z,23.96
2018-04-12T12:15:29.682Z,23.98
2018-04-12T12:16:30.125Z,24.02
2018-04-12T12:17:30.564Z,23.87
2018-04-12T12:18:31.005Z,23.95
2018-04-12T12:19:31.457Z,24.10
2018-04-12T12:20:31.899Z,24.08
2018-04-12T12:21:32.339Z,24.14
2018-04-12T12:22:32.783Z,24.02
2018-04-12T12:23:33.227Z,24.14
2018-04-12T12:24:33.675Z,24.08
2018-04-12T12:25:34.120Z,24.03
2018-04-12T12:26:34.580Z,24.06
2018-04-12T12:27:35.008Z,24.16
2018-04-12T12:28:35.456Z,24.13
2018-04-12T12:29:35.929Z,24.21
2018-04-12T12:30:36.347Z,24.18
2018-04-12T12:31:36.789Z,24.26
2018-04-12T12:32:37.241Z,24.23
2018-04-12T12:33:37.692Z,24.21
2018-04-12T12:34:38.126Z,24.23
2018-04-12T12:35:38.564Z,24.26
2018-04-12T12:36:39.005Z,24.23
2018-04-12T12:37:39.468Z,24.36
2018-04-12T12:38:39.910Z,24.26
2018-04-12T12:39:40.340Z,24.11
2018-04-12T12:40:40.790Z,24.17
2018-04-12T12:41:41.235Z,24.16
2018-04-12T12:42:41.680Z,24.23
2018-04-12T12:43:42.174Z,24.16
2018-04-12T12:44:42.582Z,24.23
2018-04-12T12:45:43.013Z,24.29
2018-04-12T12:46:43.456Z,24.26
2018-04-12T12:47:43.897Z,24.36
2018-04-12T12:48:44.340Z,24.32
2018-04-12T12:49:44.787Z,24.38
2018-04-12T12:50:45.258Z,24.53
2018-04-12T12:51:45.808Z,24.55
2018-04-12T12:52:46.121Z,24.55
2018-04-12T12:53:46.573Z,24.66
2018-04-12T12:54:47.008Z,24.65
2018-04-12T12:55:47.458Z,24.70
2018-04-12T12:56:47.899Z,24.50
2018-04-12T12:57:48.370Z,24.51
2018-04-12T12:58:48.793Z,24.55
2018-04-12T12:59:49.246Z,24.55
2018-04-12T13:00:49.686Z,24.47
2018-04-12T13:01:50.144Z,24.40
2018-04-12T13:02:50.575Z,24.40
2018-04-12T13:03:51.014Z,24.53
2018-04-12T13:04:51.540Z,24.39
2018-04-12T13:05:51.914Z,24.30
2018-04-12T13:06:52.427Z,24.40
2018-04-12T13:07:52.801Z,24.28
2018-04-12T13:08:53.251Z,24.18
2018-04-12T13:09:53.681Z,24.28
2018-04-12T13:10:54.141Z,24.29
2018-04-12T13:11:54.577Z,24.32
2018-04-12T13:12:55.026Z,24.32
2018-04-12T13:13:55.471Z,24.29
2018-04-12T13:14:55.912Z,24.39
2018-04-12T13:15:56.364Z,24.42
2018-04-12T13:16:56.807Z,24.28
2018-04-12T13:17:57.259Z,24.42
2018-04-12T13:18:57.701Z,24.54
2018-04-12T13:19:58.151Z,24.53
2018-04-12T13:20:58.589Z,24.47
2018-04-12T13:21:59.033Z,24.50
2018-04-12T13:22:59.482Z,24.47
2018-04-12T13:23:59.922Z,24.35
2018-04-12T13:25:00.366Z,24.39
2018-04-12T13:26:00.817Z,24.45
2018-04-12T13:27:01.344Z,24.40
2018-04-12T13:28:01.708Z,24.38
2018-04-12T13:29:02.154Z,24.36
2018-04-12T13:30:02.601Z,24.45
2018-04-12T13:31:03.060Z,24.48
2018-04-12T13:32:03.490Z,24.43
2018-04-12T13:33:03.979Z,24.43
2018-04-12T13:34:04.379Z,24.42
2018-04-12T13:35:04.819Z,24.47
2018-04-12T13:36:05.269Z,24.50
2018-04-12T13:37:05.722Z,24.39
2018-04-12T13:38:06.165Z,24.68
2018-04-12T13:39:06.607Z,24.88
2018-04-12T13:40:07.052Z,24.89
2018-04-12T13:41:07.499Z,24.98
2018-04-12T13:42:07.958Z,24.84
2018-04-12T13:43:08.389Z,24.96
2018-04-12T13:44:08.838Z,24.96
2018-04-12T13:45:09.277Z,24.91
2018-04-12T13:46:09.752Z,24.88
2018-04-12T13:47:10.180Z,24.73